sensor_id;sensor_type;location;lat;lon;timestamp;pressure;altitude;pressure_sealevel;temperature;humidity
71774;BME280;59607;52.130;5.430;2023-07-22T00:02:21;101466.00;;;14.17;100.00
71774;BME280;59607;52.130;5.430;2023-07-22T00:04:52;101459.09;;;14.16;100.00
71774;BME280;59607;52.130;5.430;2023-07-22T00:07:24;101460.75;;;14.17;100.00
71774;BME280;59607;52.130;5.430;2023-07-22T00:09:52;101459.91;;;14.16;100.00
71774;BME280;59607;52.130;5.430;2023-07-22T00:12:21;101461.75;;;14.16;100.00
71774;BME280;59607;52.130;5.430;2023-07-22T00:14:52;101455.97;;;14.12;100.00
71774;BME280;59607;52.130;5.430;2023-07-22T00:17:22;101460.78;;;14.09;100.00
71774;BME280;59607;52.130;5.430;2023-07-22T00:19:53;101458.31;;;14.07;100.00
71774;BME280;59607;52.130;5.430;2023-07-22T00:22:21;101460.78;;;14.09;100.00
71774;BME280;59607;52.130;5.430;2023-07-22T00:24:53;101457.81;;;14.03;100.00
71774;BME280;59607;52.130;5.430;2023-07-22T00:27:24;101457.19;;;14.01;100.00
71774;BME280;59607;52.130;5.430;2023-07-22T00:29:56;101455.03;;;13.97;100.00
71774;BME280;59607;52.130;5.430;2023-07-22T00:32:23;101455.38;;;13.93;100.00
71774;BME280;59607;52.130;5.430;2023-07-22T00:34:57;101455.88;;;13.89;100.00
71774;BME280;59607;52.130;5.430;2023-07-22T00:37:24;101454.25;;;13.88;100.00
71774;BME280;59607;52.130;5.430;2023-07-22T00:40:01;101453.06;;;13.90;100.00
71774;BME280;59607;52.130;5.430;2023-07-22T00:42:29;101453.06;;;13.90;100.00
71774;BME280;59607;52.130;5.430;2023-07-22T00:44:58;101451.59;;;13.88;100.00
71774;BME280;59607;52.130;5.430;2023-07-22T00:47:27;101451.94;;;13.85;100.00
71774;BME280;59607;52.130;5.430;2023-07-22T00:49:54;101455.41;;;13.85;100.00
71774;BME280;59607;52.130;5.430;2023-07-22T00:52:28;101442.38;;;13.84;100.00
71774;BME280;59607;52.130;5.430;2023-07-22T00:54:56;101444.38;;;13.81;100.00
71774;BME280;59607;52.130;5.430;2023-07-22T00:57:28;101435.47;;;13.82;100.00
71774;BME280;59607;52.130;5.430;2023-07-22T00:59:55;101433.84;;;13.81;100.00
71774;BME280;59607;52.130;5.430;2023-07-22T01:02:25;101434.47;;;13.84;100.00
71774;BME280;59607;52.130;5.430;2023-07-22T01:04:52;101431.53;;;13.78;100.00
71774;BME280;59607;52.130;5.430;2023-07-22T01:07:19;101431.19;;;13.81;100.00
71774;BME280;59607;52.130;5.430;2023-07-22T01:09:48;101425.41;;;13.86;100.00
71774;BME280;59607;52.130;5.430;2023-07-22T01:12:18;101427.03;;;13.87;100.00
71774;BME280;59607;52.130;5.430;2023-07-22T01:14:48;101430.50;;;13.88;100.00
71774;BME280;59607;52.130;5.430;2023-07-22T01:17:19;101421.78;;;13.87;100.00
71774;BME280;59607;52.130;5.430;2023-07-22T01:19:46;101425.41;;;13.86;100.00
71774;BME280;59607;52.130;5.430;2023-07-22T01:22:16;101413.06;;;13.87;100.00
71774;BME280;59607;52.130;5.430;2023-07-22T01:24:43;101415.88;;;13.85;100.00
71774;BME280;59607;52.130;5.430;2023-07-22T01:27:11;101418.78;;;13.90;100.00
71774;BME280;59607;52.130;5.430;2023-07-22T01:29:41;101417.16;;;13.89;100.00
71774;BME280;59607;52.130;5.430;2023-07-22T01:32:10;101410.59;;;13.85;100.00
71774;BME280;59607;52.130;5.430;2023-07-22T01:34:39;101415.22;;;13.83;100.00
71774;BME280;59607;52.130;5.430;2023-07-22T01:37:09;101404.00;;;13.81;100.00
71774;BME280;59607;52.130;5.430;2023-07-22T01:39:36;101407.31;;;13.75;100.00
71774;BME280;59607;52.130;5.430;2023-07-22T01:42:07;101413.44;;;13.75;100.00
71774;BME280;59607;52.130;5.430;2023-07-22T01:44:33;101410.13;;;13.73;100.00
71774;BME280;59607;52.130;5.430;2023-07-22T01:47:06;101413.94;;;13.71;100.00
71774;BME280;59607;52.130;5.430;2023-07-22T01:49:44;101413.44;;;13.67;100.00
71774;BME280;59607;52.130;5.430;2023-07-22T01:52:28;101413.13;;;13.62;100.00
71774;BME280;59607;52.130;5.430;2023-07-22T01:54:58;101414.47;;;13.57;100.00
71774;BME280;59607;52.130;5.430;2023-07-22T01:57:24;101415.78;;;13.53;100.00
71774;BME280;59607;52.130;5.430;2023-07-22T01:59:51;101408.03;;;13.52;100.00
71774;BME280;59607;52.130;5.430;2023-07-22T02:02:31;101412.31;;;13.53;100.00
71774;BME280;59607;52.130;5.430;2023-07-22T02:04:58;101415.59;;;13.55;100.00
71774;BME280;59607;52.130;5.430;2023-07-22T02:07:25;101405.41;;;13.52;100.00
71774;BME280;59607;52.130;5.430;2023-07-22T02:09:52;101414.94;;;13.53;100.00
71774;BME280;59607;52.130;5.430;2023-07-22T02:12:21;101409.03;;;13.51;100.00
71774;BME280;59607;52.130;5.430;2023-07-22T02:14:51;101405.03;;;13.47;100.00
71774;BME280;59607;52.130;5.430;2023-07-22T02:17:17;101407.69;;;13.47;100.00
71774;BME280;59607;52.130;5.430;2023-07-22T02:19:51;101400.94;;;13.44;100.00
71774;BME280;59607;52.130;5.430;2023-07-22T02:22:18;101397.31;;;13.45;100.00
71774;BME280;59607;52.130;5.430;2023-07-22T02:24:44;101392.38;;;13.42;100.00
71774;BME280;59607;52.130;5.430;2023-07-22T02:27:16;101390.91;;;13.39;100.00
71774;BME280;59607;52.130;5.430;2023-07-22T02:29:43;101395.69;;;13.36;100.00
71774;BME280;59607;52.130;5.430;2023-07-22T02:32:13;101400.78;;;13.37;100.00
71774;BME280;59607;52.130;5.430;2023-07-22T02:34:39;101390.41;;;13.36;100.00
71774;BME280;59607;52.130;5.430;2023-07-22T02:37:06;101389.59;;;13.35;100.00
71774;BME280;59607;52.130;5.430;2023-07-22T02:39:35;101392.22;;;13.35;100.00
71774;BME280;59607;52.130;5.430;2023-07-22T02:42:05;101378.41;;;13.33;100.00
71774;BME280;59607;52.130;5.430;2023-07-22T02:44:33;101381.22;;;13.31;100.00
71774;BME280;59607;52.130;5.430;2023-07-22T02:47:05;101382.19;;;13.30;100.00
71774;BME280;59607;52.130;5.430;2023-07-22T02:49:32;101380.38;;;13.31;100.00
71774;BME280;59607;52.130;5.430;2023-07-22T02:52:01;101377.91;;;13.29;100.00
71774;BME280;59607;52.130;5.430;2023-07-22T02:54:31;101375.44;;;13.28;100.00
71774;BME280;59607;52.130;5.430;2023-07-22T02:56:57;101373.31;;;13.23;100.00
71774;BME280;59607;52.130;5.430;2023-07-22T02:59:38;101376.28;;;13.20;100.00
71774;BME280;59607;52.130;5.430;2023-07-22T03:02:08;101376.47;;;13.18;100.00
71774;BME280;59607;52.130;5.430;2023-07-22T03:04:34;101378.59;;;13.15;100.00
71774;BME280;59607;52.130;5.430;2023-07-22T03:07:01;101384.03;;;13.13;100.00
71774;BME280;59607;52.130;5.430;2023-07-22T03:09:27;101390.44;;;13.19;100.00
71774;BME280;59607;52.130;5.430;2023-07-22T03:11:59;101385.00;;;13.20;100.00
71774;BME280;59607;52.130;5.430;2023-07-22T03:14:26;101396.19;;;13.23;100.00
71774;BME280;59607;52.130;5.430;2023-07-22T03:16:54;101391.09;;;13.21;100.00
71774;BME280;59607;52.130;5.430;2023-07-22T03:19:22;101387.78;;;13.19;100.00
71774;BME280;59607;52.130;5.430;2023-07-22T03:21:48;101394.41;;;13.15;100.00
71774;BME280;59607;52.130;5.430;2023-07-22T03:24:14;101394.22;;;13.16;100.00
71774;BME280;59607;52.130;5.430;2023-07-22T03:26:47;101385.50;;;13.16;100.00
71774;BME280;59607;52.130;5.430;2023-07-22T03:29:13;101390.59;;;13.17;100.00
71774;BME280;59607;52.130;5.430;2023-07-22T03:31:40;101389.97;;;13.15;100.00
71774;BME280;59607;52.130;5.430;2023-07-22T03:34:12;101390.59;;;13.17;100.00
71774;BME280;59607;52.130;5.430;2023-07-22T03:36:40;101387.00;;;13.18;100.00
71774;BME280;59607;52.130;5.430;2023-07-22T03:39:12;101389.28;;;13.22;100.00
71774;BME280;59607;52.130;5.430;2023-07-22T03:41:39;101392.09;;;13.20;100.00
71774;BME280;59607;52.130;5.430;2023-07-22T03:44:05;101391.25;;;13.19;100.00
71774;BME280;59607;52.130;5.430;2023-07-22T03:46:32;101390.25;;;13.20;100.00
71774;BME280;59607;52.130;5.430;2023-07-22T03:49:01;101390.09;;;13.22;100.00
71774;BME280;59607;52.130;5.430;2023-07-22T03:51:34;101383.69;;;13.25;100.00
71774;BME280;59607;52.130;5.430;2023-07-22T03:54:00;101387.97;;;13.26;100.00
71774;BME280;59607;52.130;5.430;2023-07-22T03:56:26;101388.63;;;13.28;100.00
71774;BME280;59607;52.130;5.430;2023-07-22T03:59:03;101385.81;;;13.29;100.00
71774;BME280;59607;52.130;5.430;2023-07-22T04:01:29;101390.91;;;13.31;100.00
71774;BME280;59607;52.130;5.430;2023-07-22T04:03:56;101388.28;;;13.31;100.00
71774;BME280;59607;52.130;5.430;2023-07-22T04:06:35;101393.06;;;13.36;100.00
71774;BME280;59607;52.130;5.430;2023-07-22T04:09:04;101396.84;;;13.33;100.00
71774;BME280;59607;52.130;5.430;2023-07-22T04:11:33;101388.78;;;13.35;100.00
71774;BME280;59607;52.130;5.430;2023-07-22T04:14:00;101392.72;;;13.39;100.00
71774;BME280;59607;52.130;5.430;2023-07-22T04:16:40;101401.13;;;13.42;100.00
71774;BME280;59607;52.130;5.430;2023-07-22T04:19:07;101395.69;;;13.44;100.00
71774;BME280;59607;52.130;5.430;2023-07-22T04:21:34;101389.91;;;13.49;100.00
71774;BME280;59607;52.130;5.430;2023-07-22T04:24:01;101384.97;;;13.54;100.00
71774;BME280;59607;52.130;5.430;2023-07-22T04:26:28;101384.28;;;13.60;100.00
71774;BME280;59607;52.130;5.430;2023-07-22T04:29:03;101385.25;;;13.67;100.00
71774;BME280;59607;52.130;5.430;2023-07-22T04:31:35;101387.88;;;13.76;100.00
71774;BME280;59607;52.130;5.430;2023-07-22T04:34:01;101376.59;;;13.90;100.00
71774;BME280;59607;52.130;5.430;2023-07-22T04:36:28;101383.50;;;14.00;100.00
71774;BME280;59607;52.130;5.430;2023-07-22T04:38:58;101383.00;;;14.04;100.00
71774;BME280;59607;52.130;5.430;2023-07-22T04:41:24;101391.84;;;14.12;100.00
71774;BME280;59607;52.130;5.430;2023-07-22T04:43:51;101396.09;;;14.13;100.00
71774;BME280;59607;52.130;5.430;2023-07-22T04:46:24;101395.97;;;14.14;100.00
71774;BME280;59607;52.130;5.430;2023-07-22T04:48:56;101389.34;;;14.18;100.00
71774;BME280;59607;52.130;5.430;2023-07-22T04:51:30;101392.91;;;14.26;100.00
71774;BME280;59607;52.130;5.430;2023-07-22T04:53:58;101394.69;;;14.34;100.00
71774;BME280;59607;52.130;5.430;2023-07-22T04:56:24;101399.09;;;14.41;100.00
71774;BME280;59607;52.130;5.430;2023-07-22T04:58:54;101395.28;;;14.44;100.00
71774;BME280;59607;52.130;5.430;2023-07-22T05:01:21;101386.50;;;14.52;100.00
71774;BME280;59607;52.130;5.430;2023-07-22T05:03:53;101394.53;;;14.59;100.00
71774;BME280;59607;52.130;5.430;2023-07-22T05:06:24;101387.25;;;14.61;100.00
71774;BME280;59607;52.130;5.430;2023-07-22T05:08:54;101382.09;;;14.67;100.00
71774;BME280;59607;52.130;5.430;2023-07-22T05:11:20;101389.47;;;14.80;100.00
71774;BME280;59607;52.130;5.430;2023-07-22T05:13:56;101386.47;;;14.84;100.00
71774;BME280;59607;52.130;5.430;2023-07-22T05:16:23;101382.63;;;14.86;100.00
71774;BME280;59607;52.130;5.430;2023-07-22T05:18:49;101384.38;;;14.94;100.00
71774;BME280;59607;52.130;5.430;2023-07-22T05:21:16;101381.06;;;15.00;100.00
71774;BME280;59607;52.130;5.430;2023-07-22T05:23:43;101390.44;;;15.03;100.00
71774;BME280;59607;52.130;5.430;2023-07-22T05:26:13;101386.34;;;15.15;100.00
71774;BME280;59607;52.130;5.430;2023-07-22T05:28:40;101385.25;;;15.25;100.00
71774;BME280;59607;52.130;5.430;2023-07-22T05:31:07;101384.19;;;15.34;100.00
71774;BME280;59607;52.130;5.430;2023-07-22T05:33:35;101375.19;;;15.44;100.00
71774;BME280;59607;52.130;5.430;2023-07-22T05:36:05;101380.19;;;15.53;100.00
71774;BME280;59607;52.130;5.430;2023-07-22T05:38:34;101386.84;;;15.64;100.00
71774;BME280;59607;52.130;5.430;2023-07-22T05:41:01;101377.53;;;15.69;100.00
71774;BME280;59607;52.130;5.430;2023-07-22T05:43:27;101384.56;;;15.76;100.00
71774;BME280;59607;52.130;5.430;2023-07-22T05:46:00;101383.63;;;15.84;100.00
71774;BME280;59607;52.130;5.430;2023-07-22T05:48:26;101385.28;;;15.85;100.00
71774;BME280;59607;52.130;5.430;2023-07-22T05:50:56;101384.09;;;15.88;100.00
71774;BME280;59607;52.130;5.430;2023-07-22T05:53:22;101377.97;;;15.87;100.00
71774;BME280;59607;52.130;5.430;2023-07-22T05:55:49;101387.16;;;15.91;100.00
71774;BME280;59607;52.130;5.430;2023-07-22T05:58:19;101378.53;;;15.98;100.00
71774;BME280;59607;52.130;5.430;2023-07-22T06:00:46;101386.44;;;16.13;100.00
71774;BME280;59607;52.130;5.430;2023-07-22T06:03:15;101379.63;;;16.25;100.00
71774;BME280;59607;52.130;5.430;2023-07-22T06:05:48;101381.97;;;16.35;100.00
71774;BME280;59607;52.130;5.430;2023-07-22T06:08:15;101386.19;;;16.45;100.00
71774;BME280;59607;52.130;5.430;2023-07-22T06:10:45;101390.34;;;16.54;100.00
71774;BME280;59607;52.130;5.430;2023-07-22T06:13:12;101383.69;;;16.65;100.00
71774;BME280;59607;52.130;5.430;2023-07-22T06:15:39;101383.44;;;16.82;100.00
71774;BME280;59607;52.130;5.430;2023-07-22T06:18:11;101384.13;;;16.90;100.00
71774;BME280;59607;52.130;5.430;2023-07-22T06:20:40;101373.75;;;16.96;100.00
71774;BME280;59607;52.130;5.430;2023-07-22T06:23:07;101369.00;;;17.13;100.00
71774;BME280;59607;52.130;5.430;2023-07-22T06:25:39;101368.38;;;17.39;100.00
71774;BME280;59607;52.130;5.430;2023-07-22T06:28:06;101369.06;;;17.55;99.45
71774;BME280;59607;52.130;5.430;2023-07-22T06:30:32;101371.09;;;18.09;97.24
71774;BME280;59607;52.130;5.430;2023-07-22T06:33:02;101357.94;;;18.90;89.69
71774;BME280;59607;52.130;5.430;2023-07-22T06:35:29;101357.91;;;19.24;87.04
71774;BME280;59607;52.130;5.430;2023-07-22T06:37:55;101359.88;;;19.56;85.49
71774;BME280;59607;52.130;5.430;2023-07-22T06:40:24;101352.41;;;19.78;83.02
71774;BME280;59607;52.130;5.430;2023-07-22T06:42:54;101361.34;;;19.91;82.62
71774;BME280;59607;52.130;5.430;2023-07-22T06:45:21;101364.00;;;19.91;81.62
71774;BME280;59607;52.130;5.430;2023-07-22T06:47:58;101353.59;;;19.82;81.83
71774;BME280;59607;52.130;5.430;2023-07-22T06:50:34;101361.16;;;19.85;83.05
71774;BME280;59607;52.130;5.430;2023-07-22T06:53:00;101355.75;;;20.13;82.08
71774;BME280;59607;52.130;5.430;2023-07-22T06:55:29;101350.91;;;20.28;80.56
71774;BME280;59607;52.130;5.430;2023-07-22T06:57:59;101344.94;;;20.33;80.01
71774;BME280;59607;52.130;5.430;2023-07-22T07:00:29;101342.44;;;20.38;79.18
71774;BME280;59607;52.130;5.430;2023-07-22T07:02:58;101344.41;;;20.50;79.15
71774;BME280;59607;52.130;5.430;2023-07-22T07:05:25;101348.03;;;20.55;78.49
71774;BME280;59607;52.130;5.430;2023-07-22T07:07:55;101349.47;;;20.58;77.77
71774;BME280;59607;52.130;5.430;2023-07-22T07:10:22;101343.75;;;20.54;77.29
71774;BME280;59607;52.130;5.430;2023-07-22T07:12:48;101344.84;;;20.46;78.75
71774;BME280;59607;52.130;5.430;2023-07-22T07:15:15;101358.22;;;20.40;78.57
71774;BME280;59607;52.130;5.430;2023-07-22T07:17:47;101351.09;;;20.33;78.36
71774;BME280;59607;52.130;5.430;2023-07-22T07:20:17;101348.44;;;20.33;78.49
71774;BME280;59607;52.130;5.430;2023-07-22T07:22:43;101345.56;;;20.61;78.98
71774;BME280;59607;52.130;5.430;2023-07-22T07:25:10;101351.31;;;20.83;76.80
71774;BME280;59607;52.130;5.430;2023-07-22T07:27:38;101343.03;;;20.91;76.29
71774;BME280;59607;52.130;5.430;2023-07-22T07:30:07;101352.06;;;20.90;76.35
71774;BME280;59607;52.130;5.430;2023-07-22T07:32:37;101344.06;;;20.90;75.35
71774;BME280;59607;52.130;5.430;2023-07-22T07:35:08;101345.53;;;20.86;74.90
71774;BME280;59607;52.130;5.430;2023-07-22T07:37:38;101350.44;;;20.64;75.84
71774;BME280;59607;52.130;5.430;2023-07-22T07:40:06;101353.50;;;20.42;78.13
71774;BME280;59607;52.130;5.430;2023-07-22T07:42:48;101354.25;;;20.49;78.39
71774;BME280;59607;52.130;5.430;2023-07-22T07:45:16;101355.81;;;20.57;75.94
71774;BME280;59607;52.130;5.430;2023-07-22T07:47:46;101352.72;;;20.60;75.41
71774;BME280;59607;52.130;5.430;2023-07-22T07:50:12;101343.94;;;20.59;75.81
71774;BME280;59607;52.130;5.430;2023-07-22T07:52:59;101344.09;;;20.65;74.94
71774;BME280;59607;52.130;5.430;2023-07-22T07:55:26;101349.69;;;20.56;74.90
71774;BME280;59607;52.130;5.430;2023-07-22T07:57:52;101339.91;;;20.50;74.76
71774;BME280;59607;52.130;5.430;2023-07-22T08:00:23;101344.59;;;20.55;73.99
71774;BME280;59607;52.130;5.430;2023-07-22T08:02:49;101340.66;;;20.57;72.56
71774;BME280;59607;52.130;5.430;2023-07-22T08:05:16;101343.94;;;20.59;71.71
71774;BME280;59607;52.130;5.430;2023-07-22T08:07:46;101342.88;;;20.61;71.56
71774;BME280;59607;52.130;5.430;2023-07-22T08:10:13;101347.38;;;20.60;71.57
71774;BME280;59607;52.130;5.430;2023-07-22T08:12:39;101347.94;;;20.69;71.13
71774;BME280;59607;52.130;5.430;2023-07-22T08:15:07;101347.13;;;20.68;71.03
71774;BME280;59607;52.130;5.430;2023-07-22T08:17:37;101342.41;;;20.89;70.06
71774;BME280;59607;52.130;5.430;2023-07-22T08:20:04;101343.66;;;21.12;70.22
71774;BME280;59607;52.130;5.430;2023-07-22T08:22:32;101333.00;;;21.31;69.35
71774;BME280;59607;52.130;5.430;2023-07-22T08:25:02;101350.34;;;21.40;67.59
71774;BME280;59607;52.130;5.430;2023-07-22T08:27:32;101342.41;;;21.52;67.42
71774;BME280;59607;52.130;5.430;2023-07-22T08:30:05;101337.00;;;21.90;65.30
71774;BME280;59607;52.130;5.430;2023-07-22T08:32:32;101343.41;;;22.31;64.62
71774;BME280;59607;52.130;5.430;2023-07-22T08:35:13;101338.00;;;22.74;63.09
71774;BME280;59607;52.130;5.430;2023-07-22T08:37:42;101340.44;;;22.88;61.29
71774;BME280;59607;52.130;5.430;2023-07-22T08:40:09;101338.34;;;22.78;60.52
71774;BME280;59607;52.130;5.430;2023-07-22T08:42:37;101343.72;;;22.66;60.62
71774;BME280;59607;52.130;5.430;2023-07-22T08:45:06;101329.41;;;22.72;59.76
71774;BME280;59607;52.130;5.430;2023-07-22T08:47:45;101333.56;;;22.68;59.44
71774;BME280;59607;52.130;5.430;2023-07-22T08:50:20;101328.81;;;22.70;59.90
71774;BME280;59607;52.130;5.430;2023-07-22T08:52:48;101330.56;;;22.88;59.10
71774;BME280;59607;52.130;5.430;2023-07-22T08:55:18;101325.78;;;22.90;59.05
71774;BME280;59607;52.130;5.430;2023-07-22T08:57:46;101329.28;;;22.91;59.33
71774;BME280;59607;52.130;5.430;2023-07-22T09:00:24;101324.38;;;23.00;58.98
71774;BME280;59607;52.130;5.430;2023-07-22T09:02:51;101324.97;;;22.90;59.74
71774;BME280;59607;52.130;5.430;2023-07-22T09:05:22;101325.09;;;22.83;59.48
71774;BME280;59607;52.130;5.430;2023-07-22T09:07:49;101322.66;;;22.93;59.29
71774;BME280;59607;52.130;5.430;2023-07-22T09:10:20;101315.31;;;22.89;58.46
71774;BME280;59607;52.130;5.430;2023-07-22T09:12:51;101324.28;;;22.83;59.21
71774;BME280;59607;52.130;5.430;2023-07-22T09:15:23;101322.28;;;23.02;57.94
71774;BME280;59607;52.130;5.430;2023-07-22T09:17:54;101323.09;;;23.02;58.12
71774;BME280;59607;52.130;5.430;2023-07-22T09:20:31;101326.25;;;22.99;56.67
71774;BME280;59607;52.130;5.430;2023-07-22T09:22:59;101326.00;;;22.89;56.67
71774;BME280;59607;52.130;5.430;2023-07-22T09:25:40;101315.69;;;22.80;57.07
71774;BME280;59607;52.130;5.430;2023-07-22T09:28:14;101325.69;;;22.73;57.10
71774;BME280;59607;52.130;5.430;2023-07-22T09:30:41;101328.47;;;22.66;57.27
71774;BME280;59607;52.130;5.430;2023-07-22T09:33:21;101333.47;;;22.63;57.90
71774;BME280;59607;52.130;5.430;2023-07-22T09:35:52;101326.25;;;22.87;57.25
71774;BME280;59607;52.130;5.430;2023-07-22T09:38:25;101323.56;;;22.99;56.56
71774;BME280;59607;52.130;5.430;2023-07-22T09:43:23;101319.50;;;22.97;55.96
71774;BME280;59607;52.130;5.430;2023-07-22T09:45:52;101313.47;;;22.89;56.28
71774;BME280;59607;52.130;5.430;2023-07-22T09:48:24;101320.41;;;22.90;56.00
71774;BME280;59607;52.130;5.430;2023-07-22T09:51:01;101321.72;;;22.88;56.26
71774;BME280;59607;52.130;5.430;2023-07-22T09:53:27;101325.44;;;22.75;56.67
71774;BME280;59607;52.130;5.430;2023-07-22T09:55:54;101324.53;;;22.69;56.75
71774;BME280;59607;52.130;5.430;2023-07-22T09:58:24;101319.94;;;22.46;55.56
71774;BME280;59607;52.130;5.430;2023-07-22T10:00:55;101323.91;;;22.43;56.17
71774;BME280;59607;52.130;5.430;2023-07-22T10:03:45;101327.97;;;22.46;57.15
71774;BME280;59607;52.130;5.430;2023-07-22T10:06:15;101320.19;;;22.44;56.33
71774;BME280;59607;52.130;5.430;2023-07-22T10:08:45;101323.09;;;22.42;56.28
71774;BME280;59607;52.130;5.430;2023-07-22T10:11:18;101327.56;;;22.18;57.14
71774;BME280;59607;52.130;5.430;2023-07-22T10:13:48;101319.09;;;22.21;56.42
71774;BME280;59607;52.130;5.430;2023-07-22T10:16:20;101323.50;;;22.15;56.19
71774;BME280;59607;52.130;5.430;2023-07-22T10:18:48;101310.63;;;22.24;56.15
71774;BME280;59607;52.130;5.430;2023-07-22T10:21:29;101321.00;;;22.44;56.44
71774;BME280;59607;52.130;5.430;2023-07-22T10:24:03;101317.66;;;22.61;56.96
71774;BME280;59607;52.130;5.430;2023-07-22T10:26:31;101309.97;;;22.65;55.22
71774;BME280;59607;52.130;5.430;2023-07-22T10:29:16;101309.41;;;22.63;54.70
71774;BME280;59607;52.130;5.430;2023-07-22T10:31:47;101317.31;;;22.70;54.63
71774;BME280;59607;52.130;5.430;2023-07-22T10:34:28;101318.34;;;22.92;54.25
71774;BME280;59607;52.130;5.430;2023-07-22T10:37:17;101316.84;;;22.97;55.46
71774;BME280;59607;52.130;5.430;2023-07-22T10:39:47;101315.06;;;22.90;56.03
71774;BME280;59607;52.130;5.430;2023-07-22T10:42:24;101318.34;;;22.68;56.78
71774;BME280;59607;52.130;5.430;2023-07-22T10:44:53;101319.81;;;22.40;54.73
71774;BME280;59607;52.130;5.430;2023-07-22T10:48:00;101320.63;;;22.29;55.00
71774;BME280;59607;52.130;5.430;2023-07-22T10:50:54;101309.81;;;22.24;54.81
71774;BME280;59607;52.130;5.430;2023-07-22T10:54:10;101313.63;;;22.16;55.10
71774;BME280;59607;52.130;5.430;2023-07-22T10:56:44;101303.28;;;22.08;55.25
71774;BME280;59607;52.130;5.430;2023-07-22T10:59:13;101311.63;;;21.99;55.54
71774;BME280;59607;52.130;5.430;2023-07-22T11:01:46;101309.06;;;21.92;55.87
71774;BME280;59607;52.130;5.430;2023-07-22T11:04:26;101307.63;;;21.78;56.00
71774;BME280;59607;52.130;5.430;2023-07-22T11:07:05;101316.06;;;21.56;57.00
71774;BME280;59607;52.130;5.430;2023-07-22T11:09:36;101319.06;;;21.29;56.48
71774;BME280;59607;52.130;5.430;2023-07-22T11:12:44;101333.22;;;21.11;57.25
71774;BME280;59607;52.130;5.430;2023-07-22T11:15:33;101309.44;;;21.09;57.32
71774;BME280;59607;52.130;5.430;2023-07-22T11:18:19;101313.53;;;21.12;57.22
71774;BME280;59607;52.130;5.430;2023-07-22T11:20:52;101313.34;;;21.25;56.61
71774;BME280;59607;52.130;5.430;2023-07-22T11:23:19;101310.91;;;21.42;57.29
71774;BME280;59607;52.130;5.430;2023-07-22T11:25:45;101309.66;;;21.76;56.01
71774;BME280;59607;52.130;5.430;2023-07-22T11:28:19;101304.41;;;21.88;56.29
71774;BME280;59607;52.130;5.430;2023-07-22T11:30:49;101296.72;;;21.91;56.48
71774;BME280;59607;52.130;5.430;2023-07-22T11:33:24;101305.19;;;21.88;56.86
71774;BME280;59607;52.130;5.430;2023-07-22T11:36:02;101300.34;;;21.97;57.23
71774;BME280;59607;52.130;5.430;2023-07-22T11:38:32;101288.75;;;22.03;57.59
71774;BME280;59607;52.130;5.430;2023-07-22T11:41:04;101300.34;;;21.97;56.85
71774;BME280;59607;52.130;5.430;2023-07-22T11:43:34;101300.44;;;21.90;57.28
71774;BME280;59607;52.130;5.430;2023-07-22T11:46:07;101294.69;;;22.05;56.54
71774;BME280;59607;52.130;5.430;2023-07-22T11:48:33;101295.41;;;22.25;55.14
71774;BME280;59607;52.130;5.430;2023-07-22T11:51:03;101290.31;;;22.59;54.91
71774;BME280;59607;52.130;5.430;2023-07-22T11:53:34;101283.22;;;22.89;53.88
71774;BME280;59607;52.130;5.430;2023-07-22T11:56:02;101282.97;;;22.90;53.40
71774;BME280;59607;52.130;5.430;2023-07-22T11:58:32;101284.38;;;22.45;53.22
71774;BME280;59607;52.130;5.430;2023-07-22T12:01:14;101288.06;;;22.08;54.75
71774;BME280;59607;52.130;5.430;2023-07-22T12:03:42;101284.19;;;21.80;56.04
71774;BME280;59607;52.130;5.430;2023-07-22T12:06:16;101300.06;;;21.56;56.85
71774;BME280;59607;52.130;5.430;2023-07-22T12:08:48;101302.75;;;21.18;57.29
71774;BME280;59607;52.130;5.430;2023-07-22T12:11:20;101306.72;;;20.97;59.97
71774;BME280;59607;52.130;5.430;2023-07-22T12:14:34;101309.09;;;20.80;61.31
71774;BME280;59607;52.130;5.430;2023-07-22T12:16:42;101312.38;;;20.56;61.24
71774;BME280;59607;52.130;5.430;2023-07-22T12:19:09;101324.16;;;20.49;61.51
71774;BME280;59607;52.130;5.430;2023-07-22T12:21:45;101322.84;;;20.58;62.10
71774;BME280;59607;52.130;5.430;2023-07-22T12:24:14;101327.34;;;20.57;64.58
71774;BME280;59607;52.130;5.430;2023-07-22T12:26:46;101323.06;;;20.56;65.91
71774;BME280;59607;52.130;5.430;2023-07-22T12:29:13;101325.81;;;20.68;66.04
71774;BME280;59607;52.130;5.430;2023-07-22T12:31:39;101307.25;;;20.80;66.30
71774;BME280;59607;52.130;5.430;2023-07-22T12:34:06;101308.78;;;20.95;65.88
71774;BME280;59607;52.130;5.430;2023-07-22T12:36:41;101313.22;;;21.01;64.70
71774;BME280;59607;52.130;5.430;2023-07-22T12:39:08;101307.38;;;20.92;63.61
71774;BME280;59607;52.130;5.430;2023-07-22T12:41:42;101309.97;;;20.74;62.83
71774;BME280;59607;52.130;5.430;2023-07-22T12:44:24;101304.53;;;20.62;62.68
71774;BME280;59607;52.130;5.430;2023-07-22T12:47:05;101309.78;;;20.50;63.98
71774;BME280;59607;52.130;5.430;2023-07-22T12:49:32;101309.59;;;20.44;64.40
71774;BME280;59607;52.130;5.430;2023-07-22T12:52:01;101306.56;;;20.41;64.54
71774;BME280;59607;52.130;5.430;2023-07-22T12:54:31;101309.13;;;20.29;65.69
71774;BME280;59607;52.130;5.430;2023-07-22T12:57:11;101311.69;;;20.10;68.47
71774;BME280;59607;52.130;5.430;2023-07-22T12:59:43;101310.94;;;20.03;70.89
71774;BME280;59607;52.130;5.430;2023-07-22T13:02:16;101313.41;;;19.97;72.83
71774;BME280;59607;52.130;5.430;2023-07-22T13:04:46;101316.09;;;19.91;74.36
71774;BME280;59607;52.130;5.430;2023-07-22T13:07:12;101310.97;;;19.89;77.10